Time;durP1;ratioP1;P1;durP2;ratioP2;P2;SDS_P1;SDS_P2;PMS_P1;PMS_P2;Temp;Humidity;BMP_temperature;BMP_pressure;BME280_temperature;BME280_humidity;BME280_pressure;Samples;Min_cycle;Max_cycle;Signal;HPM_P1;HPM_P2
2022/06/17 00:01:15;;;;;;;10.23;9.15;;;;;;;17.48;66.37;102281.22;5083630;28;20032;-67
2022/06/17 00:03:40;;;;;;;11.02;9.45;;;;;;;17.46;66.51;102283.97;5086220;28;20062;-67
2022/06/17 00:06:06;;;;;;;9.70;8.60;;;;;;;17.50;66.11;102274.88;5080178;28;20028;-68
2022/06/17 00:08:41;;;;;;;10.90;9.48;;;;;;;17.46;66.42;102278.72;5073038;28;20032;-68
2022/06/17 00:11:21;;;;;;;11.32;9.60;;;;;;;17.42;65.12;102272.09;5086658;28;20344;-68
2022/06/17 00:13:47;;;;;;;11.35;9.23;;;;;;;17.39;66.36;102277.63;5085501;28;20066;-68
2022/06/17 00:16:14;;;;;;;10.38;9.27;;;;;;;17.36;65.78;102280.50;5086250;28;20471;-68
2022/06/17 00:18:41;;;;;;;11.07;9.98;;;;;;;17.43;66.01;102289.50;5085048;28;20039;-68
2022/06/17 00:21:10;;;;;;;10.63;9.52;;;;;;;17.36;65.97;102298.84;5076201;28;20479;-67
2022/06/17 00:23:36;;;;;;;11.48;10.23;;;;;;;17.33;65.91;102288.66;5072372;28;20028;-67
2022/06/17 00:26:01;;;;;;;11.25;10.05;;;;;;;17.33;66.48;102282.56;5084944;28;20402;-68
2022/06/17 00:28:28;;;;;;;11.60;9.90;;;;;;;17.38;66.17;102286.44;5078203;28;20035;-67
2022/06/17 00:30:53;;;;;;;11.13;9.77;;;;;;;17.43;65.81;102284.25;5074668;28;20020;-68
2022/06/17 00:33:19;;;;;;;12.10;9.93;;;;;;;17.38;66.03;102281.19;5085313;28;20376;-67
2022/06/17 00:35:55;;;;;;;10.98;9.75;;;;;;;17.40;65.95;102286.31;5083508;28;20476;-70
2022/06/17 00:38:23;;;;;;;11.70;9.82;;;;;;;17.36;65.46;102277.88;5077148;28;20032;-67
2022/06/17 00:40:50;;;;;;;10.68;9.50;;;;;;;17.34;65.59;102274.56;5085046;28;20055;-68
2022/06/17 00:43:31;;;;;;;11.32;10.10;;;;;;;17.28;65.46;102269.84;5085227;28;20107;-68
2022/06/17 00:46:11;;;;;;;11.45;9.75;;;;;;;17.37;65.71;102274.28;5082425;28;20034;-67
2022/06/17 00:48:41;;;;;;;12.80;9.68;;;;;;;17.32;66.27;102286.13;5085207;28;20659;-67
2022/06/17 00:51:07;;;;;;;10.95;9.85;;;;;;;17.29;65.17;102289.84;5084303;28;20455;-68
2022/06/17 00:53:40;;;;;;;10.77;9.55;;;;;;;17.25;65.07;102276.16;5083037;28;20054;-67
2022/06/17 00:56:24;;;;;;;11.52;10.32;;;;;;;17.23;65.41;102274.66;5084021;28;20035;-67
2022/06/17 00:59:15;;;;;;;11.40;10.30;;;;;;;17.17;66.22;102277.81;5079811;28;20036;-68
2022/06/17 01:01:50;;;;;;;11.07;9.82;;;;;;;17.15;66.31;102277.97;5072693;28;20036;-67
2022/06/17 01:04:35;;;;;;;10.65;9.45;;;;;;;17.18;65.81;102284.72;5065539;28;20059;-67
2022/06/17 01:07:09;;;;;;;12.50;10.27;;;;;;;17.11;66.66;102278.34;5073220;28;20029;-68
2022/06/17 01:12:24;;;;;;;11.50;10.25;;;;;;;17.18;66.54;102279.47;5072365;28;20104;-69
2022/06/17 01:14:50;;;;;;;12.63;11.40;;;;;;;17.20;66.85;102282.78;5083937;28;20036;-68
2022/06/17 01:17:18;;;;;;;13.35;12.05;;;;;;;17.18;66.10;102276.84;5084273;28;20509;-70
2022/06/17 01:19:45;;;;;;;;;;;;;;;17.43;64.45;102289.50;5081435;28;20055;-68
2022/06/17 01:22:26;;;;;;;12.95;11.65;;;;;;;17.32;65.08;102287.00;5082133;28;19912;-67
2022/06/17 01:25:19;;;;;;;14.65;12.30;;;;;;;17.27;65.75;102286.56;5080148;28;20028;-67
2022/06/17 01:27:47;;;;;;;13.38;11.98;;;;;;;17.12;66.98;102280.00;5073298;28;20053;-69
2022/06/17 01:30:17;;;;;;;;;;;;;;;17.39;64.59;102282.84;5085987;28;20028;-67
2022/06/17 01:32:55;;;;;;;12.98;11.77;;;;;;;17.03;66.76;102275.53;5072363;28;20001;-67
2022/06/17 01:35:24;;;;;;;13.82;12.30;;;;;;;16.94;66.86;102288.47;5082515;28;20024;-68
2022/06/17 01:37:49;;;;;;;13.43;12.15;;;;;;;16.91;66.82;102283.50;5084680;28;20593;-67
2022/06/17 01:40:17;;;;;;;13.75;12.25;;;;;;;16.82;67.46;102286.91;5072581;28;20115;-67
2022/06/17 01:42:44;;;;;;;13.73;12.52;;;;;;;16.77;67.46;102291.72;5080074;28;20142;-67
2022/06/17 01:45:11;;;;;;;13.88;12.43;;;;;;;16.69;67.68;102279.25;5077048;28;20035;-67
2022/06/17 01:47:39;;;;;;;14.40;13.00;;;;;;;16.69;67.66;102283.66;5080983;28;20064;-67
2022/06/17 01:50:12;;;;;;;14.65;13.15;;;;;;;16.64;67.40;102283.19;5086546;28;20059;-67
2022/06/17 01:52:43;;;;;;;14.85;13.38;;;;;;;16.50;68.30;102265.19;5087311;28;20060;-67
2022/06/17 01:55:22;;;;;;;15.13;13.52;;;;;;;16.59;67.86;102277.50;5088583;28;20039;-67
2022/06/17 01:57:54;;;;;;;15.60;14.05;;;;;;;16.59;68.40;102282.75;5084976;28;20487;-68
2022/06/17 02:00:23;;;;;;;15.32;13.93;;;;;;;16.70;67.26;102280.91;5064322;28;20024;-68
2022/06/17 02:03:00;;;;;;;15.43;13.98;;;;;;;16.67;67.42;102281.13;5085203;28;20032;-67
2022/06/17 02:05:30;;;;;;;15.00;13.43;;;;;;;16.73;66.40;102285.88;5082011;28;20024;-70
2022/06/17 02:07:58;;;;;;;16.08;14.02;;;;;;;16.77;66.30;102278.59;5079068;28;20051;-67
2022/06/17 02:10:34;;;;;;;16.60;13.85;;;;;;;16.80;66.29;102282.75;5085851;28;20027;-67
2022/06/17 02:13:02;;;;;;;15.50;14.10;;;;;;;16.79;66.41;102279.28;5084858;28;20107;-67
2022/06/17 02:15:27;;;;;;;15.70;14.30;;;;;;;16.71;66.95;102281.75;5076683;28;20024;-67
2022/06/17 02:17:54;;;;;;;15.88;14.25;;;;;;;16.65;66.66;102293.53;5089265;28;20028;-67
2022/06/17 02:20:22;;;;;;;15.70;14.20;;;;;;;16.52;67.72;102281.63;5087141;28;20043;-67
2022/06/17 02:22:47;;;;;;;15.77;14.23;;;;;;;16.36;67.58;102277.66;5086781;28;20064;-68
2022/06/17 02:25:19;;;;;;;16.02;14.52;;;;;;;16.62;67.10;102293.78;5075855;28;20020;-68
2022/06/17 02:27:47;;;;;;;15.43;13.93;;;;;;;16.65;66.61;102287.47;5089286;28;20051;-68
2022/06/17 02:30:14;;;;;;;15.52;14.13;;;;;;;16.64;66.12;102264.88;5088712;28;20034;-67
2022/06/17 02:32:40;;;;;;;15.82;14.23;;;;;;;16.66;66.03;102268.19;5085153;28;20027;-69
2022/06/17 02:35:14;;;;;;;16.38;14.77;;;;;;;16.68;66.73;102271.47;5080355;28;20378;-67
2022/06/17 02:37:40;;;;;;;16.90;15.25;;;;;;;16.62;66.19;102256.28;5084901;28;20055;-68
2022/06/17 02:40:21;;;;;;;16.95;15.13;;;;;;;16.64;66.33;102267.47;5074310;28;20056;-67
2022/06/17 02:42:47;;;;;;;16.23;14.82;;;;;;;16.61;66.61;102249.38;5082736;28;20107;-68
2022/06/17 02:45:20;;;;;;;16.20;14.07;;;;;;;16.58;65.71;102265.38;5088266;28;20122;-69
2022/06/17 02:47:46;;;;;;;16.27;14.88;;;;;;;16.55;65.62;102260.38;5075173;28;20024;-67
2022/06/17 02:50:19;;;;;;;15.77;14.27;;;;;;;16.54;66.20;102266.59;5087759;28;20066;-67
2022/06/17 02:52:45;;;;;;;16.60;14.77;;;;;;;16.49;66.38;102266.16;5064921;28;20529;-67
2022/06/17 02:55:18;;;;;;;15.63;14.10;;;;;;;16.43;66.69;102270.94;5085755;28;20108;-67
2022/06/17 02:57:47;;;;;;;15.85;14.35;;;;;;;16.45;66.37;102269.00;5085513;28;20103;-67
2022/06/17 03:00:17;;;;;;;15.95;14.35;;;;;;;16.44;66.14;102275.22;5065221;28;20027;-67
2022/06/17 03:02:50;;;;;;;16.10;14.48;;;;;;;16.43;66.21;102268.31;5085821;28;20023;-67
2022/06/17 03:05:28;;;;;;;15.73;14.30;;;;;;;16.38;66.51;102267.88;5086867;28;20559;-67
2022/06/17 03:07:54;;;;;;;;;;;;;;;16.60;64.74;102263.44;5055155;28;20036;-71
2022/06/17 03:10:27;;;;;;;14.73;13.38;;;;;;;16.33;66.04;102262.19;5082149;28;20355;-68
2022/06/17 03:12:58;;;;;;;16.08;14.48;;;;;;;16.31;65.86;102269.34;5086379;28;20133;-67
2022/06/17 03:15:25;;;;;;;15.50;14.00;;;;;;;16.27;66.27;102278.41;5087101;28;20580;-67
2022/06/17 03:17:50;;;;;;;15.73;14.25;;;;;;;16.27;66.30;102286.25;5086486;28;20051;-67
2022/06/17 03:20:23;;;;;;;15.70;14.30;;;;;;;16.30;66.00;102291.25;5087041;28;20375;-67
2022/06/17 03:22:54;;;;;;;15.57;14.00;;;;;;;16.22;66.34;102296.25;5079671;28;20036;-67
2022/06/17 03:25:26;;;;;;;14.70;13.30;;;;;;;16.20;66.52;102292.97;5086057;28;20024;-67
2022/06/17 03:27:56;;;;;;;15.40;13.85;;;;;;;16.22;66.28;102296.25;5086517;28;20020;-67
2022/06/17 03:30:30;;;;;;;15.65;14.35;;;;;;;16.11;66.93;102288.47;5069308;28;20059;-68
2022/06/17 03:33:20;;;;;;;15.68;14.07;;;;;;;16.20;66.56;102292.97;5080470;28;20032;-68
2022/06/17 03:35:49;;;;;;;15.02;13.60;;;;;;;16.17;66.38;102293.19;5069352;28;20028;-67
2022/06/17 03:38:26;;;;;;;15.75;14.25;;;;;;;16.19;66.63;102301.78;5081428;28;20074;-67
2022/06/17 03:40:59;;;;;;;15.82;14.25;;;;;;;16.19;66.43;102307.00;5076198;28;20034;-67
2022/06/17 03:43:50;;;;;;;15.27;13.77;;;;;;;16.24;66.26;102304.84;5081428;28;20111;-68
2022/06/17 03:46:19;;;;;;;15.68;13.77;;;;;;;16.24;66.50;102312.69;5077374;28;20073;-68
2022/06/17 03:48:52;;;;;;;15.82;14.18;;;;;;;16.27;66.44;102309.81;5083159;28;20025;-67
2022/06/17 03:51:23;;;;;;;15.50;14.10;;;;;;;16.23;66.06;102308.44;5083579;28;20111;-67
2022/06/17 03:53:51;;;;;;;16.40;14.88;;;;;;;16.21;66.32;102310.31;5082120;28;20426;-67
2022/06/17 03:56:23;;;;;;;15.65;14.07;;;;;;;16.18;66.42;102297.50;5085925;28;20040;-67
2022/06/17 03:58:50;;;;;;;15.95;14.40;;;;;;;16.24;66.07;102310.09;5083261;28;20024;-68
2022/06/17 04:01:34;;;;;;;15.70;14.15;;;;;;;16.25;66.35;102303.06;5085169;28;20461;-68
2022/06/17 04:04:04;;;;;;;16.27;14.68;;;;;;;16.17;65.73;102301.03;5080520;28;20039;-67
2022/06/17 04:06:36;;;;;;;16.38;14.88;;;;;;;16.20;66.32;102313.91;5083794;28;20486;-67
2022/06/17 04:09:20;;;;;;;17.00;14.20;;;;;;;16.25;65.90;102316.97;5081943;28;20032;-67
2022/06/17 04:11:51;;;;;;;16.40;14.80;;;;;;;16.23;66.72;102302.31;5079761;28;20480;-66
2022/06/17 04:14:37;;;;;;;16.90;15.30;;;;;;;16.31;66.03;102298.13;5078847;28;20069;-67
2022/06/17 04:17:11;;;;;;;16.67;15.07;;;;;;;16.25;66.12;102293.41;5082584;28;20077;-67
2022/06/17 04:19:38;;;;;;;16.77;15.10;;;;;;;16.33;66.67;102293.59;5066064;28;20376;-67
2022/06/17 04:22:18;;;;;;;16.38;14.88;;;;;;;16.35;66.91;102296.94;5085227;28;20059;-67
2022/06/17 04:24:48;;;;;;;15.63;14.07;;;;;;;16.33;66.62;102293.59;5063472;28;20069;-67
2022/06/17 04:27:15;;;;;;;16.02;14.40;;;;;;;16.28;67.28;102295.75;5080687;28;20035;-67
2022/06/17 04:29:46;;;;;;;16.58;15.02;;;;;;;16.33;67.36;102290.97;5083067;28;20067;-67
2022/06/17 04:32:22;;;;;;;17.00;15.40;;;;;;;16.29;67.51;102281.75;5080346;28;20037;-67
2022/06/17 04:34:47;;;;;;;16.73;15.23;;;;;;;16.29;67.26;102289.59;5076359;28;20470;-67
2022/06/17 04:37:19;;;;;;;17.77;16.00;;;;;;;16.28;67.82;102285.28;5079466;28;20032;-68
2022/06/17 04:39:44;;;;;;;18.08;16.27;;;;;;;16.28;67.68;102280.06;5082230;28;20023;-70
2022/06/17 04:42:30;;;;;;;17.75;16.08;;;;;;;16.35;67.40;102276.00;5084299;28;20069;-68
2022/06/17 04:44:55;;;;;;;18.52;16.63;;;;;;;16.32;67.25;102278.84;5080498;28;20467;-70
2022/06/17 04:47:21;;;;;;;18.00;16.45;;;;;;;16.34;67.29;102278.72;5081710;28;20031;-67
2022/06/17 04:49:52;;;;;;;18.42;16.83;;;;;;;16.34;67.51;102276.91;5081276;28;20471;-68
2022/06/17 04:52:20;;;;;;;18.83;17.13;;;;;;;16.34;67.22;102276.91;5081830;28;20078;-67
2022/06/17 04:54:48;;;;;;;18.25;16.45;;;;;;;16.38;66.84;102267.88;5085696;28;20081;-68
2022/06/17 04:57:14;;;;;;;19.63;17.63;;;;;;;16.38;66.99;102264.41;5074104;28;20028;-67
2022/06/17 04:59:47;;;;;;;19.33;17.45;;;;;;;16.41;67.35;102272.84;5084142;28;20028;-67
2022/06/17 05:02:28;;;;;;;18.42;16.83;;;;;;;16.43;67.57;102272.72;5083027;28;20035;-67
2022/06/17 05:04:57;;;;;;;19.00;17.25;;;;;;;16.42;67.89;102271.91;5084069;28;20032;-67
2022/06/17 05:07:24;;;;;;;19.20;17.40;;;;;;;16.45;67.57;102274.25;5074305;28;20858;-67
2022/06/17 05:09:54;;;;;;;19.02;17.17;;;;;;;16.47;67.37;102276.75;5084799;28;20406;-68
2022/06/17 05:12:34;;;;;;;19.00;17.20;;;;;;;16.56;67.13;102277.75;5081737;28;20062;-67
2022/06/17 05:15:21;;;;;;;19.42;17.55;;;;;;;16.60;66.96;102276.56;5081085;28;20032;-68
2022/06/17 05:17:47;;;;;;;18.52;16.83;;;;;;;16.58;67.34;102262.75;5073322;28;20075;-68
2022/06/17 05:20:18;;;;;;;20.45;18.55;;;;;;;16.58;67.64;102260.16;5076293;28;20031;-69
2022/06/17 05:22:52;;;;;;;20.27;18.48;;;;;;;16.67;66.93;102264.59;5078772;28;20024;-69
2022/06/17 05:25:24;;;;;;;19.90;18.08;;;;;;;16.71;67.04;102271.28;5079557;28;20056;-68
2022/06/17 05:27:49;;;;;;;19.92;18.15;;;;;;;16.74;66.67;102268.38;5084322;28;20085;-69
2022/06/17 05:30:15;;;;;;;20.08;18.17;;;;;;;16.77;66.83;102260.28;5083852;28;20491;-67
2022/06/17 05:32:46;;;;;;;26.65;19.20;;;;;;;16.94;66.66;102262.28;5065336;28;20045;-70
2022/06/17 05:35:12;;;;;;;21.13;18.98;;;;;;;17.03;66.83;102259.81;5060273;28;20027;-70
2022/06/17 05:37:37;;;;;;;20.90;19.00;;;;;;;17.04;66.86;102256.25;5076817;28;20400;-68
2022/06/17 05:40:03;;;;;;;20.35;18.38;;;;;;;17.12;66.08;102256.41;5077870;28;20031;-68
2022/06/17 05:42:29;;;;;;;20.60;18.48;;;;;;;17.20;66.37;102261.81;5083426;28;20050;-68
2022/06/17 05:44:55;;;;;;;19.55;17.58;;;;;;;17.25;65.51;102276.16;5081464;28;20463;-70
2022/06/17 05:47:20;;;;;;;20.13;18.13;;;;;;;17.31;64.83;102264.31;5077515;28;20032;-69
2022/06/17 05:49:46;;;;;;;18.60;16.80;;;;;;;17.39;65.21;102266.28;5080501;28;20489;-69
2022/06/17 05:52:11;;;;;;;18.35;16.65;;;;;;;17.36;64.58;102267.38;5061293;28;20070;-70
2022/06/17 05:54:36;;;;;;;17.75;15.95;;;;;;;17.48;63.65;102268.91;5079692;28;20542;-69
2022/06/17 05:57:02;;;;;;;17.55;15.95;;;;;;;17.51;63.72;102258.16;5080719;28;20540;-68
2022/06/17 05:59:27;;;;;;;17.23;15.57;;;;;;;17.57;63.20;102248.94;5080540;28;20020;-69
2022/06/17 06:01:53;;;;;;;17.63;16.05;;;;;;;17.52;63.85;102236.22;5082922;28;20416;-68
2022/06/17 06:04:18;;;;;;;17.52;15.93;;;;;;;17.61;64.11;102237.22;5080512;28;20032;-68
2022/06/17 06:06:43;;;;;;;18.30;16.58;;;;;;;17.70;64.36;102238.16;5058211;28;20024;-69
2022/06/17 06:09:09;;;;;;;17.95;16.30;;;;;;;17.73;65.08;102245.81;5081214;28;20055;-69
2022/06/17 06:11:35;;;;;;;17.13;15.43;;;;;;;17.79;64.25;102242.63;5077542;28;20066;-69
2022/06/17 06:14:00;;;;;;;17.10;15.57;;;;;;;17.87;64.00;102253.25;5057534;28;20030;-68
2022/06/17 06:16:26;;;;;;;16.58;14.98;;;;;;;17.96;63.66;102255.06;5082935;28;20028;-68
2022/06/17 06:18:51;;;;;;;16.75;15.05;;;;;;;17.99;63.64;102246.91;5079378;28;20020;-69
2022/06/17 06:21:17;;;;;;;15.10;13.55;;;;;;;18.12;63.10;102248.41;5080693;28;20031;-68
2022/06/17 06:23:43;;;;;;;15.93;14.30;;;;;;;18.12;62.20;102236.13;5084814;28;20028;-69
2022/06/17 06:26:15;;;;;;;16.35;13.90;;;;;;;18.22;62.39;102238.72;5081933;28;20035;-68
2022/06/17 06:28:40;;;;;;;15.80;14.23;;;;;;;18.30;62.58;102239.69;5075918;28;20502;-68
2022/06/17 06:31:13;;;;;;;15.38;13.82;;;;;;;18.30;62.24;102239.69;5082997;28;20019;-68
2022/06/17 06:33:40;;;;;;;15.90;14.00;;;;;;;18.36;61.71;102235.66;5084326;28;20039;-69
2022/06/17 06:36:06;;;;;;;14.05;12.65;;;;;;;18.44;61.68;102238.41;5085401;28;20455;-68
2022/06/17 06:38:31;;;;;;;18.00;13.73;;;;;;;18.47;61.36;102232.88;5082437;28;20032;-69
2022/06/17 06:40:56;;;;;;;14.27;12.88;;;;;;;18.56;61.72;102232.00;5081917;28;20024;-68
2022/06/17 06:43:22;;;;;;;13.48;12.15;;;;;;;18.64;61.41;102238.34;5062905;28;20024;-68
2022/06/17 06:45:50;;;;;;;14.85;13.27;;;;;;;18.65;61.52;102230.34;5087709;28;20038;-69
2022/06/17 06:48:18;;;;;;;14.90;13.50;;;;;;;18.71;62.07;102250.00;5082590;28;20409;-69
2022/06/17 06:50:44;;;;;;;;;;;;;;;18.83;61.79;102243.56;5085963;28;20027;-69
2022/06/17 06:53:10;;;;;;;14.53;13.03;;;;;;;18.82;60.75;102236.66;5067505;28;20324;-69
2022/06/17 06:55:36;;;;;;;13.43;12.10;;;;;;;18.86;60.07;102247.69;5067661;28;20273;-68
2022/06/17 06:58:08;;;;;;;13.43;11.63;;;;;;;18.92;60.73;102241.88;5082177;28;20020;-68
2022/06/17 07:00:37;;;;;;;13.40;12.10;;;;;;;18.96;60.75;102236.16;5085298;28;20028;-69
2022/06/17 07:03:04;;;;;;;13.25;10.77;;;;;;;18.99;59.08;102230.63;5079968;28;20024;-69
2022/06/17 07:05:29;;;;;;;12.70;10.45;;;;;;;19.05;58.89;102231.84;5077782;28;20044;-69
2022/06/17 07:07:55;;;;;;;11.90;10.60;;;;;;;19.07;59.05;102220.19;5073589;28;20417;-68
2022/06/17 07:10:33;;;;;;;12.70;10.70;;;;;;;19.18;58.90;102232.31;5074642;28;20032;-70
2022/06/17 07:12:59;;;;;;;13.40;10.10;;;;;;;19.27;58.36;102225.38;5087666;28;20035;-69
2022/06/17 07:15:25;;;;;;;12.40;9.65;;;;;;;19.32;58.40;102233.63;5085072;28;20046;-69
2022/06/17 07:17:56;;;;;;;11.57;9.75;;;;;;;19.40;58.57;102246.06;5081586;28;20511;-69
2022/06/17 07:20:23;;;;;;;10.88;9.43;;;;;;;19.45;58.04;102239.38;5079918;28;20046;-70
2022/06/17 07:22:49;;;;;;;11.63;8.90;;;;;;;19.51;58.06;102238.78;5080033;28;20024;-68
2022/06/17 07:25:14;;;;;;;12.85;9.10;;;;;;;19.56;57.68;102251.50;5084426;28;20032;-70
2022/06/17 07:27:40;;;;;;;10.18;8.50;;;;;;;19.58;57.68;102234.59;5079127;28;20094;-68
2022/06/17 07:30:06;;;;;;;11.40;8.35;;;;;;;19.66;57.91;102238.28;5087434;28;20052;-68
2022/06/17 07:32:31;;;;;;;11.40;7.78;;;;;;;19.67;56.51;102237.28;5067983;28;20065;-69
2022/06/17 07:34:56;;;;;;;12.48;7.90;;;;;;;19.76;56.33;102239.03;5085627;28;20162;-68
2022/06/17 07:40:06;;;;;;;12.45;7.47;;;;;;;19.92;56.24;102231.28;5084934;28;20412;-69
2022/06/17 07:42:38;;;;;;;10.07;7.20;;;;;;;20.02;55.70;102242.56;5086537;28;20039;-69
2022/06/17 07:45:06;;;;;;;11.48;6.90;;;;;;;20.19;55.66;102259.31;5071517;28;20028;-70
2022/06/17 07:47:31;;;;;;;11.45;6.47;;;;;;;20.30;54.81;102239.78;5082999;28;20172;-68
2022/06/17 07:49:57;;;;;;;8.80;5.90;;;;;;;20.45;54.36;102240.88;5084651;28;20520;-69
2022/06/17 07:52:22;;;;;;;10.75;6.35;;;;;;;20.52;54.29;102236.66;5083380;28;20032;-69
2022/06/17 07:54:48;;;;;;;8.50;5.38;;;;;;;20.71;53.28;102248.81;5068140;28;20051;-68
2022/06/17 07:57:13;;;;;;;8.93;5.43;;;;;;;20.81;52.51;102248.66;5077502;28;20547;-71
2022/06/17 07:59:39;;;;;;;9.70;5.30;;;;;;;20.95;52.53;102248.09;5085093;28;20412;-69
2022/06/17 08:02:05;;;;;;;7.10;4.40;;;;;;;21.05;52.32;102261.97;5065259;28;20379;-69
2022/06/17 08:04:32;;;;;;;5.43;4.22;;;;;;;21.17;50.15;102260.69;5086748;28;20130;-69
2022/06/17 08:06:57;;;;;;;9.45;4.25;;;;;;;21.29;50.52;102263.03;5055758;28;20456;-69
2022/06/17 08:09:23;;;;;;;6.63;4.35;;;;;;;21.45;50.33;102263.94;5072457;28;20020;-69
2022/06/17 08:11:49;;;;;;;7.53;4.25;;;;;;;21.56;48.62;102260.16;5086488;28;20063;-70
2022/06/17 08:14:15;;;;;;;8.20;4.65;;;;;;;21.63;49.13;102255.88;5066737;28;20031;-68
2022/06/17 08:16:40;;;;;;;8.55;4.95;;;;;;;21.77;49.23;102267.63;5084981;28;20035;-69
2022/06/17 08:19:07;;;;;;;11.15;5.50;;;;;;;21.91;48.62;102261.69;5083830;28;20024;-69
2022/06/17 08:21:34;;;;;;;12.65;6.30;;;;;;;21.98;48.22;102259.22;5080318;28;20040;-69
2022/06/17 08:24:00;;;;;;;8.48;5.82;;;;;;;22.17;48.15;102264.19;5078955;28;20451;-69
2022/06/17 08:26:25;;;;;;;10.40;5.55;;;;;;;22.27;48.22;102253.44;5082909;28;20469;-68
2022/06/17 08:28:51;;;;;;;9.25;5.93;;;;;;;22.39;47.95;102249.44;5084899;28;20103;-70
2022/06/17 08:31:16;;;;;;;7.78;6.28;;;;;;;22.58;47.43;102244.78;5075278;28;20455;-69
2022/06/17 08:33:42;;;;;;;12.95;6.60;;;;;;;22.66;46.49;102235.00;5082667;28;20058;-69
2022/06/17 08:36:13;;;;;;;8.73;6.53;;;;;;;22.69;46.14;102232.00;5078882;28;20028;-69
2022/06/17 08:38:43;;;;;;;9.63;6.57;;;;;;;22.85;45.70;102246.19;5086035;28;20447;-69
2022/06/17 08:41:30;;;;;;;10.43;6.28;;;;;;;22.92;46.65;102241.88;5084478;28;20425;-69
2022/06/17 08:44:30;;;;;;;9.15;6.25;;;;;;;23.05;46.84;102247.44;5074280;28;20019;-69
2022/06/17 08:47:33;;;;;;;10.70;6.30;;;;;;;23.19;45.97;102249.34;5077166;28;20028;-69
2022/06/17 08:50:01;;;;;;;8.85;6.38;;;;;;;23.25;44.60;102248.66;5082122;28;20024;-69
2022/06/17 08:52:52;;;;;;;10.57;5.72;;;;;;;23.33;45.96;102248.59;5080125;28;20528;-69
2022/06/17 08:55:32;;;;;;;8.68;5.50;;;;;;;23.43;44.83;102255.50;5081662;28;20031;-67
2022/06/17 08:58:04;;;;;;;8.27;5.90;;;;;;;23.44;43.14;102247.38;5072327;28;20350;-69
2022/06/17 09:00:38;;;;;;;10.93;5.93;;;;;;;23.54;43.11;102252.47;5081441;28;20032;-68
2022/06/17 09:03:16;;;;;;;8.15;5.30;;;;;;;23.61;43.09;102258.69;5085474;28;20061;-68
2022/06/17 09:05:41;;;;;;;8.85;6.35;;;;;;;23.73;42.75;102267.91;5083908;28;20028;-68
2022/06/17 09:08:21;;;;;;;8.30;5.10;;;;;;;23.92;44.29;102266.63;5085457;28;20042;-69
2022/06/17 09:10:53;;;;;;;8.95;5.68;;;;;;;24.04;44.21;102264.38;5083917;28;20039;-69
2022/06/17 09:13:55;;;;;;;12.07;7.50;;;;;;;24.08;43.94;102249.72;5085354;28;20536;-71
2022/06/17 09:16:46;;;;;;;8.45;5.18;;;;;;;24.27;44.24;102241.28;5078698;28;20017;-69
2022/06/17 09:19:17;;;;;;;10.07;5.40;;;;;;;24.36;43.89;102237.56;5077065;28;20020;-69
2022/06/17 09:21:50;;;;;;;8.27;5.95;;;;;;;24.49;42.51;102242.25;5081705;28;20114;-69
2022/06/17 09:24:42;;;;;;;8.65;4.72;;;;;;;24.58;43.63;102248.28;5083198;28;20028;-69
2022/06/17 09:27:23;;;;;;;6.70;4.53;;;;;;;24.59;43.74;102253.38;5076046;28;20073;-71
2022/06/17 09:30:01;;;;;;;8.07;4.82;;;;;;;24.64;42.72;102239.56;5081261;28;20091;-69
2022/06/17 09:32:36;;;;;;;6.90;4.07;;;;;;;24.83;42.03;102254.94;5082053;28;20032;-68
2022/06/17 09:35:19;;;;;;;6.75;3.95;;;;;;;24.82;42.65;102253.28;5083550;28;20051;-69
2022/06/17 09:37:51;;;;;;;6.28;3.97;;;;;;;24.99;40.01;102242.47;5074044;28;20111;-70
2022/06/17 09:40:28;;;;;;;6.68;3.65;;;;;;;25.03;40.02;102254.38;5081408;28;20039;-68
2022/06/17 09:43:18;;;;;;;7.85;3.65;;;;;;;25.16;41.56;102251.88;5083084;28;20356;-68
2022/06/17 09:45:46;;;;;;;6.93;4.03;;;;;;;25.14;38.94;102238.00;5082371;28;20016;-67
2022/06/17 09:48:34;;;;;;;7.05;3.88;;;;;;;25.27;40.26;102250.59;5083583;28;20107;-68
2022/06/17 09:51:18;;;;;;;;;;;;;;;25.37;41.58;102249.28;5066874;28;20066;-68
2022/06/17 09:53:56;;;;;;;5.95;3.40;;;;;;;25.34;39.02;102240.84;5080182;28;19977;-68
2022/06/17 09:56:51;;;;;;;7.22;3.60;;;;;;;25.45;39.92;102243.00;5079002;28;20110;-69
2022/06/17 09:59:22;;;;;;;5.82;3.38;;;;;;;25.53;38.07;102244.72;5083866;28;20022;-68
2022/06/17 10:01:48;;;;;;;7.70;3.22;;;;;;;25.61;38.67;102244.59;5083763;28;20028;-69
2022/06/17 10:04:15;;;;;;;6.95;3.97;;;;;;;25.61;37.88;102252.56;5082449;28;20024;-69
2022/06/17 10:07:10;;;;;;;6.13;3.30;;;;;;;25.70;40.65;102246.13;5077548;28;20036;-68
2022/06/17 10:10:11;;;;;;;9.02;3.97;;;;;;;25.79;39.01;102226.38;5086294;28;20086;-68
2022/06/17 10:12:55;;;;;;;7.05;3.97;;;;;;;25.83;37.77;102219.69;4980233;28;20138;-68
2022/06/17 10:15:38;;;;;;;5.45;3.17;;;;;;;26.06;38.44;102213.31;4972651;28;20529;-69
2022/06/17 10:18:31;;;;;;;8.68;3.80;;;;;;;26.08;38.69;102221.91;4980785;28;20034;-70
2022/06/17 10:21:29;;;;;;;6.47;3.60;;;;;;;26.11;38.03;102226.84;4984379;28;20033;-69
2022/06/17 10:24:03;;;;;;;7.00;3.70;;;;;;;26.12;38.80;102228.47;4984583;28;20054;-71
2022/06/17 10:27:04;;;;;;;6.70;3.53;;;;;;;26.16;37.68;102224.44;4976477;28;20533;-69
2022/06/17 10:29:30;;;;;;;5.57;3.25;;;;;;;26.25;35.16;102211.78;4936868;28;20054;-69
2022/06/17 10:31:56;;;;;;;6.53;3.10;;;;;;;26.37;36.70;102204.91;4979557;28;20026;-69
2022/06/17 10:34:24;;;;;;;5.15;3.20;;;;;;;26.40;36.32;102200.00;4982806;28;20296;-69
2022/06/17 10:36:54;;;;;;;6.35;3.00;;;;;;;26.37;38.04;102200.38;4967545;28;20508;-68
2022/06/17 10:39:23;;;;;;;6.55;2.92;;;;;;;26.55;36.82;102196.41;4978341;28;20026;-69
2022/06/17 10:41:50;;;;;;;6.57;3.03;;;;;;;26.47;36.63;102200.91;4985098;28;20046;-69
2022/06/17 10:44:17;;;;;;;5.10;2.80;;;;;;;26.54;34.99;102205.41;4983959;28;20219;-68
2022/06/17 10:46:49;;;;;;;5.40;2.72;;;;;;;26.60;35.51;102205.44;4982538;28;20364;-70
2022/06/17 10:49:16;;;;;;;6.50;3.08;;;;;;;26.69;35.10;102195.47;5033019;28;20035;-69
2022/06/17 10:51:44;;;;;;;7.40;2.95;;;;;;;26.80;35.34;102196.75;5088182;28;20050;-70
2022/06/17 10:54:19;;;;;;;6.22;2.78;;;;;;;26.94;36.45;102191.25;5085698;28;20075;-69
2022/06/17 10:57:06;;;;;;;6.85;2.80;;;;;;;27.13;36.19;102194.22;5079387;28;20032;-69
2022/06/17 10:59:36;;;;;;;;;;;;;;;27.29;37.86;102183.16;5075933;28;20020;-69
2022/06/17 11:02:02;;;;;;;5.97;3.10;;;;;;;27.04;35.39;102187.38;5067621;28;19908;-70
2022/06/17 11:04:31;;;;;;;7.63;3.58;;;;;;;27.16;34.22;102189.28;5088173;28;20085;-69
2022/06/17 11:07:01;;;;;;;5.80;3.15;;;;;;;27.29;34.46;102182.34;5078451;28;20476;-68
2022/06/17 11:09:49;;;;;;;5.55;2.90;;;;;;;27.46;36.66;102173.72;5086112;28;20558;-68
2022/06/17 11:12:31;;;;;;;6.85;3.63;;;;;;;27.56;35.35;102177.84;5078644;28;20447;-69
2022/06/17 11:15:05;;;;;;;7.90;4.20;;;;;;;27.50;34.36;102174.97;5086982;28;20020;-69
2022/06/17 11:17:46;;;;;;;6.65;4.00;;;;;;;27.68;34.66;102165.53;5085887;28;20371;-69
2022/06/17 11:20:14;;;;;;;7.82;4.65;;;;;;;27.60;34.82;102168.44;5082440;28;20024;-69
2022/06/17 11:22:40;;;;;;;9.18;4.50;;;;;;;27.67;35.59;102158.56;5072082;28;20039;-70
2022/06/17 11:25:21;;;;;;;9.52;5.13;;;;;;;27.64;34.04;102150.97;5082928;28;20024;-69
2022/06/17 11:27:54;;;;;;;8.18;5.32;;;;;;;27.83;34.54;102152.03;5080674;28;20031;-70
2022/06/17 11:30:34;;;;;;;9.52;5.03;;;;;;;27.66;35.31;102152.44;5085365;28;20024;-69
2022/06/17 11:33:01;;;;;;;8.80;4.70;;;;;;;28.04;34.08;102139.28;5085687;28;20028;-70
2022/06/17 11:35:34;;;;;;;8.45;4.82;;;;;;;28.02;33.37;102135.97;5087552;28;20063;-69
2022/06/17 11:38:03;;;;;;;7.10;4.78;;;;;;;28.07;33.76;102137.19;5081115;28;20055;-69
2022/06/17 11:40:33;;;;;;;7.15;5.00;;;;;;;28.10;33.68;102131.44;5081295;28;20476;-69
2022/06/17 11:43:02;;;;;;;8.40;4.65;;;;;;;27.98;34.62;102137.41;5081026;28;20341;-69